Latest Conditions
At L.F.Wade Int. Airport
Recorded at 7:55 am
Overcast
Temp.: 
22°C/72°F
Humidity: 
92%
Wind: 
SSW 10KT
or 12mph
UV Index: 
0
Island Observations
 
Observations
Tuesday, May 17, 2022

Observations are in local time and taken at least once an hour, or upon the start and end of specified events such as showers and thunderstorms.

Time Sky / Weather Wind Speed/Gusts Temp. R.H. Pressure
     knots (mph)  °C (°F)  %  mb / "Hg
 07:55 Overcast  SSW 10/0 (12/0) 22(72) 92 1018 / 30.05
 06:55 Overcast Rain SSW 12/0 (14/0) 22(72) 96 1018 / 30.05
 05:55 Overcast Rain SSW 13/0 (15/0) 23(73) 96 1018 / 30.06
 05:25 Overcast Rain SW 11/0 (13/0) 23(73) 96 1018 / 30.05
 05:09 Overcast Rain SW 12/0 (14/0) 23(73) 96 1018 / 30.05
 04:55 Overcast  SW 11/0 (13/0) 23(73) 95 1018 / 30.05
 03:55 Overcast  SSW 13/0 (15/0) 23(73) 95 1018 / 30.05
 02:55 Overcast  SSW 13/0 (15/0) 23(73) 96 1018 / 30.06
 02:24 Overcast  SSW 12/0 (14/0) 23(73) 96 1018 / 30.07
 01:55 Overcast  SSW 13/0 (15/0) 23(73) 96 1019 / 30.08
 00:55 Overcast  SSW 11/0 (13/0) 23(73) 96 1019 / 30.09
 00:25 Overcast  SSW 11/0 (13/0) 23(73) 96 1019 / 30.10
 23:55 Mostly Cloudy  SSW 11/0 (13/0) 23(73) 95 1019 / 30.10
 23:45 Mostly Cloudy  SSW 10/0 (12/0) 23(73) 96 1019 / 30.10
 22:55 Mostly Cloudy  SSW 9/0 (10/0) 23(73) 95 1019 / 30.09
 22:08 Overcast  SW 8/0 (9/0) 23(73) 95 1019 / 30.09
 21:55 Overcast  SW 9/0 (10/0) 23(73) 94 1019 / 30.09
 20:55 Overcast  SSW 11/0 (13/0) 23(73) 95 1019 / 30.08
 19:55 Mostly Cloudy  SSW 12/0 (14/0) 23(74) 94 1018 / 30.07
 18:55 Overcast  SW 13/0 (15/0) 23(73) 87 1018 / 30.07
 18:39 Overcast Rain SW 13/0 (15/0) 23(73) 89 1018 / 30.07
 17:55 Overcast  SW 11/0 (13/0) 24(74) 93 1018 / 30.07
 17:27 Overcast Rain WSW 14/0 (16/0) 24(75) 86 1018 / 30.07
 16:55 Overcast  SW 13/0 (15/0) 24(75) 88 1018 / 30.07
 16:28 Overcast  SSW 14/0 (16/0) 24(76) 87 1018 / 30.07
 15:55 Mostly Cloudy Showers SSW 14/0 (16/0) 25(76) 88 1018 / 30.07
 14:55 Mostly Cloudy  SSW 15/0 (17/0) 24(76) 88 1019 / 30.09
 13:55 Mostly Cloudy  SSW 14/0 (16/0) 25(76) 86 1019 / 30.09
 12:55 Mostly Cloudy  S 14/0 (16/0) 25(76) 86 1019 / 30.10
 11:55 Mostly Cloudy  SSW 14/0 (16/0) 24(75) 89 1020 / 30.11
 10:55 Mostly Cloudy  S 10/0 (12/0) 24(76) 87 1020 / 30.11
 09:55 Mostly Cloudy  S 10/0 (12/0) 24(75) 91 1019 / 30.10
 08:55 Mostly Cloudy  S 11/0 (13/0) 23(74) 92 1019 / 30.10
 07:55 Mostly Cloudy  S 10/0 (12/0) 23(73) 93 1019 / 30.09
 06:55 Mostly Cloudy  S 9/0 (10/0) 22(72) 95 1019 / 30.09
 05:55 Mostly Cloudy  S 10/0 (12/0) 22(72) 93 1019 / 30.08
 04:55 Mostly Cloudy  S 8/0 (9/0) 22(72) 94 1019 / 30.09
 03:55 Mostly Cloudy  S 7/0 (8/0) 22(72) 94 1019 / 30.09
 02:55 Overcast  S 9/0 (10/0) 22(72) 94 1019 / 30.09
 02:14 Overcast  S 9/0 (10/0) 22(72) 94 1019 / 30.09
 01:55 Overcast  S 10/0 (12/0) 22(72) 94 1019 / 30.09
 00:55 Overcast  S 10/0 (12/0) 22(72) 94 1020 / 30.11
 23:55 Overcast  S 10/0 (12/0) 23(73) 93 1020 / 30.12
 22:55 Overcast  S 8/0 (9/0) 22(72) 93 1020 / 30.13
 22:35 Overcast Rain S 8/0 (9/0) 22(72) 93 1020 / 30.13
 21:55 Overcast  S 9/0 (10/0) 23(73) 93 1021 / 30.14
 20:55 Overcast  S 9/0 (10/0) 23(73) 92 1020 / 30.13
 19:55 Overcast  S 8/0 (9/0) 23(73) 91 1020 / 30.13
 18:55 Mostly Cloudy  S 9/0 (10/0) 23(73) 89 1020 / 30.12
 17:55 Mostly Cloudy  S 11/0 (13/0) 23(74) 87 1020 / 30.12
 16:55 Mostly Cloudy  S 11/0 (13/0) 24(74) 85 1020 / 30.12
 15:55 Mostly Cloudy  S 11/0 (13/0) 25(76) 81 1020 / 30.13
 14:55 Mostly Cloudy  S 10/0 (12/0) 24(75) 83 1021 / 30.15
 13:55 Mostly Cloudy  S 10/0 (12/0) 24(76) 82 1021 / 30.15
 12:55 Mostly Cloudy  S 10/0 (12/0) 24(76) 83 1022 / 30.17
 11:55 Mostly Cloudy  S 10/0 (12/0) 24(76) 84 1022 / 30.18
 10:55 Partly Cloudy  SSE 11/0 (13/0) 24(75) 85 1022 / 30.17
 09:55 Mostly Cloudy  S 8/0 (9/0) 23(74) 87 1022 / 30.18
 08:55 Mostly Cloudy  S 8/0 (9/0) 22(72) 91 1022 / 30.18
 07:55 Mostly Cloudy  S 7/0 (8/0) 22(72) 93 1022 / 30.17
 07:31 Mostly Cloudy  S 7/0 (8/0) 22(72) 93 1022 / 30.18
 07:12 Mostly Cloudy  S 8/0 (9/0) 22(71) 93 1022 / 30.18
 06:55 Mostly Cloudy  S 7/0 (8/0) 22(71) 93 1022 / 30.17
 05:55 Mostly Cloudy  S 6/0 (7/0) 22(71) 93 1021 / 30.16
 04:55 Mostly Cloudy  S 7/0 (8/0) 22(71) 91 1022 / 30.17
 03:55 Mostly Cloudy  S 8/0 (9/0) 22(71) 91 1022 / 30.17
 03:42 Mostly Cloudy  S 8/0 (9/0) 22(71) 91 1022 / 30.17
 02:55 Mostly Cloudy  S 10/0 (12/0) 22(71) 91 1022 / 30.17
 01:55 Mostly Cloudy  SSE 9/0 (10/0) 22(71) 90 1022 / 30.19
 00:55 Mostly Cloudy  SSE 8/0 (9/0) 22(72) 90 1023 / 30.21
 23:55 Mostly Cloudy  S 6/0 (7/0) 22(72) 91 1023 / 30.22
 22:55 Mostly Cloudy  SSE 7/0 (8/0) 22(72) 89 1024 / 30.23
 21:55 Mostly Cloudy  SSE 6/0 (7/0) 22(72) 87 1023 / 30.22
 20:55 Mostly Cloudy  SSE 7/0 (8/0) 22(72) 86 1023 / 30.21
 19:55 Mostly Cloudy  S 7/0 (8/0) 22(72) 86 1023 / 30.21
 18:55 Mostly Cloudy  SSE 8/0 (9/0) 23(73) 86 1023 / 30.20
 17:55 Mostly Cloudy  SSE 8/0 (9/0) 23(74) 82 1023 / 30.21
 16:55 Mostly Cloudy  SSE 8/0 (9/0) 24(75) 80 1023 / 30.21
 15:55 Mostly Cloudy  SSE 9/0 (10/0) 24(74) 81 1024 / 30.23
 14:55 Mostly Cloudy  SSE 10/0 (12/0) 24(75) 80 1024 / 30.24
 13:55 Mostly Cloudy  SSE 10/0 (12/0) 24(76) 78 1024 / 30.25
 12:55 Mostly Cloudy  ESE 10/0 (12/0) 24(75) 79 1025 / 30.26
 11:55 Mostly Cloudy  ESE 9/0 (10/0) 23(73) 84 1025 / 30.27
 10:55 Overcast  ESE 7/0 (8/0) 23(74) 83 1025 / 30.28
 09:55 Overcast  SE 6/0 (7/0) 22(72) 88 1026 / 30.29
 08:55 Mostly Cloudy  ESE 6/0 (7/0) 22(72) 88 1026 / 30.29
 07:55 Mostly Cloudy  SE 6/0 (7/0) 22(72) 88 1025 / 30.28
 06:55 Mostly Cloudy  SE 7/0 (8/0) 22(71) 89 1025 / 30.27
 05:55 Mostly Cloudy  SSE 7/0 (8/0) 22(71) 91 1025 / 30.26
 04:55 Mostly Cloudy  SE 7/0 (8/0) 22(71) 93 1025 / 30.26
 03:55 Mostly Cloudy  SE 7/0 (8/0) 22(71) 92 1025 / 30.26
 02:55 Mostly Cloudy  SE 7/0 (8/0) 22(71) 92 1025 / 30.28
 01:55 Mostly Cloudy  ESE 8/0 (9/0) 22(72) 92 1025 / 30.28
 00:55 Mostly Cloudy  ESE 9/0 (10/0) 22(72) 94 1026 / 30.31
 23:55 Mostly Cloudy  E 8/0 (9/0) 22(71) 96 1027 / 30.32
 22:55 Mostly Cloudy  E 6/0 (7/0) 22(71) 95 1027 / 30.32
 21:55 Mostly Cloudy  ESE 6/0 (7/0) 22(72) 95 1027 / 30.33
 20:55 Mostly Cloudy  ESE 7/0 (8/0) 22(72) 94 1027 / 30.32
 19:55 Mostly Cloudy  SE 6/0 (7/0) 22(72) 93 1026 / 30.31
 18:55 Mostly Cloudy  SE 6/0 (7/0) 23(73) 93 1026 / 30.31
Island AWOS